Terminal Aerodrome Forecast
Issued by NWS

Home | Current Version | Previous Version | Text Only | Print | Product List | Glossary On
Versions: 1 2 3 4 5 6 7 8 9 10 11
000
FTUS42 TJSJ 242300
TAFJPS
TAF
TJPS 242332Z 2500/2524 VRB03KT P6SM FEW030
     FM251500 12012KT P6SM FEW030 SCT060
     FM252330 06005KT P6SM FEW030
      AMD NOT SKED TIL 250300=

USA.gov is the U.S. government's official web portal to all federal, state and local government web resources and services.